sensor_id;sensor_type;location;lat;lon;timestamp;P1;durP1;ratioP1;P2;durP2;ratioP2
9801;SDS011;4940;50.900;4.672;2023-08-01T00:01:00;102.45;;;94.95;;
9801;SDS011;4940;50.900;4.672;2023-08-01T00:03:27;99.70;;;92.35;;
9801;SDS011;4940;50.900;4.672;2023-08-01T00:05:55;91.53;;;84.53;;
9801;SDS011;4940;50.900;4.672;2023-08-01T00:08:23;104.32;;;96.75;;
9801;SDS011;4940;50.900;4.672;2023-08-01T00:10:50;101.82;;;94.40;;
9801;SDS011;4940;50.900;4.672;2023-08-01T00:13:18;99.70;;;92.40;;
9801;SDS011;4940;50.900;4.672;2023-08-01T00:15:45;103.20;;;95.63;;
9801;SDS011;4940;50.900;4.672;2023-08-01T00:18:13;119.13;;;110.85;;
9801;SDS011;4940;50.900;4.672;2023-08-01T00:20:40;74.78;;;68.47;;
9801;SDS011;4940;50.900;4.672;2023-08-01T00:23:08;103.05;;;95.68;;
9801;SDS011;4940;50.900;4.672;2023-08-01T00:25:36;100.10;;;92.70;;
9801;SDS011;4940;50.900;4.672;2023-08-01T00:28:04;94.53;;;87.40;;
9801;SDS011;4940;50.900;4.672;2023-08-01T00:30:31;97.15;;;89.93;;
9801;SDS011;4940;50.900;4.672;2023-08-01T00:32:58;111.03;;;103.03;;
9801;SDS011;4940;50.900;4.672;2023-08-01T00:35:26;103.13;;;95.63;;
9801;SDS011;4940;50.900;4.672;2023-08-01T00:37:53;101.53;;;93.88;;
9801;SDS011;4940;50.900;4.672;2023-08-01T00:40:20;109.90;;;102.20;;
9801;SDS011;4940;50.900;4.672;2023-08-01T00:42:49;113.20;;;105.40;;
9801;SDS011;4940;50.900;4.672;2023-08-01T00:45:21;103.38;;;95.80;;
9801;SDS011;4940;50.900;4.672;2023-08-01T00:47:49;91.25;;;84.40;;
9801;SDS011;4940;50.900;4.672;2023-08-01T00:50:17;92.80;;;85.72;;
9801;SDS011;4940;50.900;4.672;2023-08-01T00:52:45;90.93;;;83.82;;
9801;SDS011;4940;50.900;4.672;2023-08-01T00:55:13;97.40;;;90.03;;
9801;SDS011;4940;50.900;4.672;2023-08-01T00:57:42;74.13;;;68.20;;
9801;SDS011;4940;50.900;4.672;2023-08-01T01:00:11;92.43;;;85.43;;
9801;SDS011;4940;50.900;4.672;2023-08-01T01:02:39;56.13;;;50.70;;
9801;SDS011;4940;50.900;4.672;2023-08-01T01:05:07;80.55;;;74.15;;
9801;SDS011;4940;50.900;4.672;2023-08-01T01:07:34;85.38;;;78.53;;
9801;SDS011;4940;50.900;4.672;2023-08-01T01:10:03;89.30;;;82.07;;
9801;SDS011;4940;50.900;4.672;2023-08-01T01:12:31;86.60;;;79.70;;
9801;SDS011;4940;50.900;4.672;2023-08-01T01:14:58;88.30;;;81.10;;
9801;SDS011;4940;50.900;4.672;2023-08-01T01:17:26;77.80;;;71.47;;
9801;SDS011;4940;50.900;4.672;2023-08-01T01:19:54;98.20;;;90.85;;
9801;SDS011;4940;50.900;4.672;2023-08-01T01:22:22;106.85;;;99.15;;
9801;SDS011;4940;50.900;4.672;2023-08-01T01:24:50;62.70;;;57.13;;
9801;SDS011;4940;50.900;4.672;2023-08-01T01:27:20;88.53;;;81.28;;
9801;SDS011;4940;50.900;4.672;2023-08-01T01:29:48;84.95;;;78.05;;
9801;SDS011;4940;50.900;4.672;2023-08-01T01:32:16;84.05;;;77.30;;
9801;SDS011;4940;50.900;4.672;2023-08-01T01:34:44;92.53;;;85.43;;
9801;SDS011;4940;50.900;4.672;2023-08-01T01:37:11;86.43;;;79.53;;
9801;SDS011;4940;50.900;4.672;2023-08-01T01:39:40;79.47;;;72.95;;
9801;SDS011;4940;50.900;4.672;2023-08-01T01:42:07;91.50;;;84.40;;
9801;SDS011;4940;50.900;4.672;2023-08-01T01:44:35;90.03;;;82.93;;
9801;SDS011;4940;50.900;4.672;2023-08-01T01:47:02;57.90;;;52.20;;
9801;SDS011;4940;50.900;4.672;2023-08-01T01:49:29;95.32;;;88.20;;
9801;SDS011;4940;50.900;4.672;2023-08-01T01:51:57;80.22;;;73.75;;
9801;SDS011;4940;50.900;4.672;2023-08-01T01:54:24;97.05;;;89.07;;
9801;SDS011;4940;50.900;4.672;2023-08-01T01:56:53;97.20;;;89.75;;
9801;SDS011;4940;50.900;4.672;2023-08-01T01:59:20;107.43;;;99.57;;
9801;SDS011;4940;50.900;4.672;2023-08-01T02:01:48;81.30;;;74.53;;
9801;SDS011;4940;50.900;4.672;2023-08-01T02:04:15;100.53;;;92.85;;
9801;SDS011;4940;50.900;4.672;2023-08-01T02:06:43;108.20;;;100.40;;
9801;SDS011;4940;50.900;4.672;2023-08-01T02:09:10;98.95;;;91.32;;
9801;SDS011;4940;50.900;4.672;2023-08-01T02:11:38;98.28;;;90.78;;
9801;SDS011;4940;50.900;4.672;2023-08-01T02:14:06;98.88;;;91.18;;
9801;SDS011;4940;50.900;4.672;2023-08-01T02:16:34;85.95;;;78.95;;
9801;SDS011;4940;50.900;4.672;2023-08-01T02:19:01;92.00;;;84.47;;
9801;SDS011;4940;50.900;4.672;2023-08-01T02:21:28;81.25;;;74.45;;
9801;SDS011;4940;50.900;4.672;2023-08-01T02:23:56;77.00;;;70.88;;
9801;SDS011;4940;50.900;4.672;2023-08-01T02:26:23;85.03;;;78.53;;
9801;SDS011;4940;50.900;4.672;2023-08-01T02:28:50;64.70;;;58.63;;
9801;SDS011;4940;50.900;4.672;2023-08-01T02:31:19;90.68;;;83.43;;
9801;SDS011;4940;50.900;4.672;2023-08-01T02:33:46;98.18;;;90.88;;
9801;SDS011;4940;50.900;4.672;2023-08-01T02:36:14;89.47;;;82.40;;
9801;SDS011;4940;50.900;4.672;2023-08-01T02:38:41;93.50;;;86.30;;
9801;SDS011;4940;50.900;4.672;2023-08-01T02:41:08;93.55;;;86.35;;
9801;SDS011;4940;50.900;4.672;2023-08-01T02:43:36;88.97;;;81.97;;
9801;SDS011;4940;50.900;4.672;2023-08-01T02:46:03;93.88;;;86.20;;
9801;SDS011;4940;50.900;4.672;2023-08-01T02:48:32;89.70;;;82.68;;
9801;SDS011;4940;50.900;4.672;2023-08-01T02:51:00;79.78;;;73.15;;
9801;SDS011;4940;50.900;4.672;2023-08-01T02:53:27;99.55;;;91.80;;
9801;SDS011;4940;50.900;4.672;2023-08-01T02:55:54;94.47;;;87.13;;
9801;SDS011;4940;50.900;4.672;2023-08-01T02:58:22;95.57;;;88.22;;
9801;SDS011;4940;50.900;4.672;2023-08-01T03:00:49;91.25;;;84.30;;
9801;SDS011;4940;50.900;4.672;2023-08-01T03:03:16;82.32;;;75.28;;
9801;SDS011;4940;50.900;4.672;2023-08-01T03:05:45;89.15;;;81.65;;
9801;SDS011;4940;50.900;4.672;2023-08-01T03:08:13;82.03;;;75.47;;
9801;SDS011;4940;50.900;4.672;2023-08-01T03:10:40;83.05;;;76.05;;
9801;SDS011;4940;50.900;4.672;2023-08-01T03:13:07;55.63;;;50.20;;
9801;SDS011;4940;50.900;4.672;2023-08-01T03:15:35;83.55;;;76.63;;
9801;SDS011;4940;50.900;4.672;2023-08-01T03:18:02;73.90;;;67.20;;
9801;SDS011;4940;50.900;4.672;2023-08-01T03:20:30;70.57;;;64.32;;
9801;SDS011;4940;50.900;4.672;2023-08-01T03:22:59;67.53;;;61.33;;
9801;SDS011;4940;50.900;4.672;2023-08-01T03:25:26;77.30;;;70.80;;
9801;SDS011;4940;50.900;4.672;2023-08-01T03:27:53;69.80;;;63.33;;
9801;SDS011;4940;50.900;4.672;2023-08-01T03:30:20;73.47;;;67.03;;
9801;SDS011;4940;50.900;4.672;2023-08-01T03:32:48;78.20;;;71.68;;
9801;SDS011;4940;50.900;4.672;2023-08-01T03:35:15;66.65;;;60.75;;
9801;SDS011;4940;50.900;4.672;2023-08-01T03:37:43;64.38;;;57.65;;
9801;SDS011;4940;50.900;4.672;2023-08-01T03:40:12;76.63;;;69.80;;
9801;SDS011;4940;50.900;4.672;2023-08-01T03:42:39;69.03;;;62.95;;
9801;SDS011;4940;50.900;4.672;2023-08-01T03:45:07;77.82;;;71.32;;
9801;SDS011;4940;50.900;4.672;2023-08-01T03:47:35;80.80;;;73.78;;
9801;SDS011;4940;50.900;4.672;2023-08-01T03:50:03;90.47;;;83.18;;
9801;SDS011;4940;50.900;4.672;2023-08-01T03:52:30;81.47;;;74.82;;
9801;SDS011;4940;50.900;4.672;2023-08-01T03:54:57;51.08;;;45.72;;
9801;SDS011;4940;50.900;4.672;2023-08-01T03:57:26;63.35;;;57.67;;
9801;SDS011;4940;50.900;4.672;2023-08-01T03:59:53;76.43;;;69.82;;
9801;SDS011;4940;50.900;4.672;2023-08-01T04:02:21;77.80;;;71.20;;
9801;SDS011;4940;50.900;4.672;2023-08-01T04:04:48;97.25;;;89.88;;
9801;SDS011;4940;50.900;4.672;2023-08-01T04:07:15;87.15;;;79.95;;
9801;SDS011;4940;50.900;4.672;2023-08-01T04:09:44;84.32;;;77.53;;
9801;SDS011;4940;50.900;4.672;2023-08-01T04:12:11;88.22;;;80.80;;
9801;SDS011;4940;50.900;4.672;2023-08-01T04:14:40;69.05;;;62.88;;
9801;SDS011;4940;50.900;4.672;2023-08-01T04:17:07;88.10;;;80.93;;
9801;SDS011;4940;50.900;4.672;2023-08-01T04:19:35;83.20;;;76.07;;
9801;SDS011;4940;50.900;4.672;2023-08-01T04:22:02;109.18;;;101.32;;
9801;SDS011;4940;50.900;4.672;2023-08-01T04:24:29;113.50;;;105.32;;
9801;SDS011;4940;50.900;4.672;2023-08-01T04:26:57;84.07;;;76.85;;
9801;SDS011;4940;50.900;4.672;2023-08-01T04:29:24;51.72;;;46.70;;
9801;SDS011;4940;50.900;4.672;2023-08-01T04:31:53;45.45;;;40.55;;
9801;SDS011;4940;50.900;4.672;2023-08-01T04:34:20;45.83;;;41.03;;
9801;SDS011;4940;50.900;4.672;2023-08-01T04:36:49;44.30;;;39.63;;
9801;SDS011;4940;50.900;4.672;2023-08-01T04:39:16;45.95;;;39.88;;
9801;SDS011;4940;50.900;4.672;2023-08-01T04:41:43;45.58;;;40.92;;
9801;SDS011;4940;50.900;4.672;2023-08-01T04:44:11;50.55;;;45.08;;
9801;SDS011;4940;50.900;4.672;2023-08-01T04:46:38;48.35;;;43.35;;
9801;SDS011;4940;50.900;4.672;2023-08-01T04:49:07;54.70;;;49.53;;
9801;SDS011;4940;50.900;4.672;2023-08-01T04:51:34;46.55;;;41.72;;
9801;SDS011;4940;50.900;4.672;2023-08-01T04:54:01;45.35;;;40.65;;
9801;SDS011;4940;50.900;4.672;2023-08-01T04:56:29;44.50;;;39.70;;
9801;SDS011;4940;50.900;4.672;2023-08-01T04:58:56;44.65;;;39.63;;
9801;SDS011;4940;50.900;4.672;2023-08-01T05:01:23;43.97;;;39.28;;
9801;SDS011;4940;50.900;4.672;2023-08-01T05:03:51;45.80;;;40.08;;
9801;SDS011;4940;50.900;4.672;2023-08-01T05:06:20;45.45;;;40.28;;
9801;SDS011;4940;50.900;4.672;2023-08-01T05:08:47;47.28;;;42.08;;
9801;SDS011;4940;50.900;4.672;2023-08-01T05:11:14;51.53;;;42.83;;
9801;SDS011;4940;50.900;4.672;2023-08-01T05:13:42;50.05;;;39.78;;
9801;SDS011;4940;50.900;4.672;2023-08-01T05:16:09;45.88;;;40.92;;
9801;SDS011;4940;50.900;4.672;2023-08-01T05:18:36;45.67;;;39.40;;
9801;SDS011;4940;50.900;4.672;2023-08-01T05:21:04;43.55;;;38.22;;
9801;SDS011;4940;50.900;4.672;2023-08-01T05:23:32;44.63;;;38.55;;
9801;SDS011;4940;50.900;4.672;2023-08-01T05:25:59;45.20;;;38.13;;
9801;SDS011;4940;50.900;4.672;2023-08-01T05:28:27;42.58;;;37.72;;
9801;SDS011;4940;50.900;4.672;2023-08-01T05:30:54;42.20;;;37.63;;
9801;SDS011;4940;50.900;4.672;2023-08-01T05:33:22;44.90;;;39.95;;
9801;SDS011;4940;50.900;4.672;2023-08-01T05:35:49;46.58;;;38.40;;
9801;SDS011;4940;50.900;4.672;2023-08-01T05:38:16;43.00;;;38.38;;
9801;SDS011;4940;50.900;4.672;2023-08-01T05:40:45;47.03;;;39.55;;
9801;SDS011;4940;50.900;4.672;2023-08-01T05:43:12;47.17;;;42.08;;
9801;SDS011;4940;50.900;4.672;2023-08-01T05:45:40;42.78;;;38.17;;
9801;SDS011;4940;50.900;4.672;2023-08-01T05:48:07;40.20;;;35.95;;
9801;SDS011;4940;50.900;4.672;2023-08-01T05:50:35;43.45;;;36.50;;
9801;SDS011;4940;50.900;4.672;2023-08-01T05:53:03;40.00;;;35.42;;
9801;SDS011;4940;50.900;4.672;2023-08-01T05:55:31;41.40;;;36.45;;
9801;SDS011;4940;50.900;4.672;2023-08-01T05:58:00;39.60;;;35.38;;
9801;SDS011;4940;50.900;4.672;2023-08-01T06:00:27;40.45;;;36.05;;
9801;SDS011;4940;50.900;4.672;2023-08-01T06:02:55;41.20;;;36.95;;
9801;SDS011;4940;50.900;4.672;2023-08-01T06:05:23;43.53;;;38.85;;
9801;SDS011;4940;50.900;4.672;2023-08-01T06:07:51;41.53;;;36.35;;
9801;SDS011;4940;50.900;4.672;2023-08-01T06:10:18;39.35;;;35.00;;
9801;SDS011;4940;50.900;4.672;2023-08-01T06:12:45;43.00;;;37.33;;
9801;SDS011;4940;50.900;4.672;2023-08-01T06:15:14;41.80;;;37.00;;
9801;SDS011;4940;50.900;4.672;2023-08-01T06:17:41;43.03;;;38.30;;
9801;SDS011;4940;50.900;4.672;2023-08-01T06:20:09;44.30;;;38.78;;
9801;SDS011;4940;50.900;4.672;2023-08-01T06:22:37;41.67;;;37.00;;
9801;SDS011;4940;50.900;4.672;2023-08-01T06:25:05;45.00;;;40.08;;
9801;SDS011;4940;50.900;4.672;2023-08-01T06:27:33;36.33;;;33.13;;
9801;SDS011;4940;50.900;4.672;2023-08-01T06:30:00;33.47;;;30.88;;
9801;SDS011;4940;50.900;4.672;2023-08-01T06:32:29;32.03;;;29.45;;
9801;SDS011;4940;50.900;4.672;2023-08-01T06:34:56;33.38;;;30.58;;
9801;SDS011;4940;50.900;4.672;2023-08-01T06:37:23;33.53;;;30.77;;
9801;SDS011;4940;50.900;4.672;2023-08-01T06:39:51;34.00;;;31.30;;
9801;SDS011;4940;50.900;4.672;2023-08-01T06:42:18;32.72;;;30.15;;
9801;SDS011;4940;50.900;4.672;2023-08-01T06:44:45;32.58;;;30.17;;
9801;SDS011;4940;50.900;4.672;2023-08-01T06:47:13;31.75;;;29.35;;
9801;SDS011;4940;50.900;4.672;2023-08-01T06:49:42;34.00;;;31.20;;
9801;SDS011;4940;50.900;4.672;2023-08-01T06:52:09;33.67;;;30.83;;
9801;SDS011;4940;50.900;4.672;2023-08-01T06:54:36;33.15;;;30.45;;
9801;SDS011;4940;50.900;4.672;2023-08-01T06:57:04;34.17;;;31.48;;
9801;SDS011;4940;50.900;4.672;2023-08-01T06:59:32;33.78;;;31.10;;
9801;SDS011;4940;50.900;4.672;2023-08-01T07:02:00;33.53;;;30.77;;
9801;SDS011;4940;50.900;4.672;2023-08-01T07:04:27;33.80;;;30.77;;
9801;SDS011;4940;50.900;4.672;2023-08-01T07:06:56;32.83;;;30.30;;
9801;SDS011;4940;50.900;4.672;2023-08-01T07:09:23;33.58;;;30.75;;
9801;SDS011;4940;50.900;4.672;2023-08-01T07:11:51;31.52;;;29.17;;
9801;SDS011;4940;50.900;4.672;2023-08-01T07:14:18;30.70;;;28.42;;
9801;SDS011;4940;50.900;4.672;2023-08-01T07:16:45;32.83;;;29.80;;
9801;SDS011;4940;50.900;4.672;2023-08-01T07:19:13;32.40;;;30.08;;
9801;SDS011;4940;50.900;4.672;2023-08-01T07:21:40;18.02;;;16.77;;
9801;SDS011;4940;50.900;4.672;2023-08-01T07:24:10;7.68;;;6.95;;
9801;SDS011;4940;50.900;4.672;2023-08-01T07:26:39;5.13;;;4.00;;
9801;SDS011;4940;50.900;4.672;2023-08-01T07:29:07;4.90;;;3.92;;
9801;SDS011;4940;50.900;4.672;2023-08-01T07:31:35;5.68;;;4.50;;
9801;SDS011;4940;50.900;4.672;2023-08-01T07:34:03;7.47;;;4.47;;
9801;SDS011;4940;50.900;4.672;2023-08-01T07:36:30;4.68;;;3.58;;
9801;SDS011;4940;50.900;4.672;2023-08-01T07:38:58;6.90;;;4.43;;
9801;SDS011;4940;50.900;4.672;2023-08-01T07:41:26;7.63;;;3.88;;
9801;SDS011;4940;50.900;4.672;2023-08-01T07:43:54;8.75;;;5.35;;
9801;SDS011;4940;50.900;4.672;2023-08-01T07:46:21;6.30;;;3.30;;
9801;SDS011;4940;50.900;4.672;2023-08-01T07:48:49;7.57;;;3.15;;
9801;SDS011;4940;50.900;4.672;2023-08-01T07:51:18;4.43;;;3.10;;
9801;SDS011;4940;50.900;4.672;2023-08-01T07:53:46;5.90;;;3.25;;
9801;SDS011;4940;50.900;4.672;2023-08-01T07:56:13;6.05;;;3.00;;
9801;SDS011;4940;50.900;4.672;2023-08-01T07:58:41;4.63;;;2.92;;
9801;SDS011;4940;50.900;4.672;2023-08-01T08:01:09;4.75;;;3.50;;
9801;SDS011;4940;50.900;4.672;2023-08-01T08:03:36;3.78;;;2.78;;
9801;SDS011;4940;50.900;4.672;2023-08-01T08:06:03;7.10;;;3.97;;
9801;SDS011;4940;50.900;4.672;2023-08-01T08:08:31;6.47;;;3.60;;
9801;SDS011;4940;50.900;4.672;2023-08-01T08:10:59;7.28;;;3.40;;
9801;SDS011;4940;50.900;4.672;2023-08-01T08:13:27;7.22;;;3.45;;
9801;SDS011;4940;50.900;4.672;2023-08-01T08:15:56;8.23;;;3.50;;
9801;SDS011;4940;50.900;4.672;2023-08-01T08:18:24;4.70;;;3.53;;
9801;SDS011;4940;50.900;4.672;2023-08-01T08:20:52;8.32;;;4.22;;
9801;SDS011;4940;50.900;4.672;2023-08-01T08:23:19;9.18;;;5.05;;
9801;SDS011;4940;50.900;4.672;2023-08-01T08:25:48;7.38;;;4.00;;
9801;SDS011;4940;50.900;4.672;2023-08-01T08:28:26;6.30;;;4.28;;
9801;SDS011;4940;50.900;4.672;2023-08-01T08:30:56;6.40;;;3.60;;
9801;SDS011;4940;50.900;4.672;2023-08-01T08:33:23;8.30;;;3.78;;
9801;SDS011;4940;50.900;4.672;2023-08-01T08:35:51;6.07;;;3.53;;
9801;SDS011;4940;50.900;4.672;2023-08-01T08:38:18;3.80;;;2.95;;
9801;SDS011;4940;50.900;4.672;2023-08-01T08:40:48;5.13;;;3.03;;
9801;SDS011;4940;50.900;4.672;2023-08-01T08:43:23;4.32;;;2.88;;
9801;SDS011;4940;50.900;4.672;2023-08-01T08:45:52;3.83;;;2.60;;
9801;SDS011;4940;50.900;4.672;2023-08-01T08:48:24;4.78;;;2.65;;
9801;SDS011;4940;50.900;4.672;2023-08-01T08:50:53;4.50;;;2.28;;
9801;SDS011;4940;50.900;4.672;2023-08-01T08:53:23;7.47;;;2.90;;
9801;SDS011;4940;50.900;4.672;2023-08-01T08:55:51;6.55;;;2.35;;
9801;SDS011;4940;50.900;4.672;2023-08-01T08:58:18;3.85;;;2.38;;
9801;SDS011;4940;50.900;4.672;2023-08-01T09:00:47;4.75;;;2.47;;
9801;SDS011;4940;50.900;4.672;2023-08-01T09:03:14;7.22;;;2.38;;
9801;SDS011;4940;50.900;4.672;2023-08-01T09:05:44;3.75;;;2.22;;
9801;SDS011;4940;50.900;4.672;2023-08-01T09:08:15;5.40;;;2.35;;
9801;SDS011;4940;50.900;4.672;2023-08-01T09:10:44;3.97;;;2.08;;
9801;SDS011;4940;50.900;4.672;2023-08-01T09:13:12;3.85;;;2.03;;
9801;SDS011;4940;50.900;4.672;2023-08-01T09:15:39;5.75;;;1.98;;
9801;SDS011;4940;50.900;4.672;2023-08-01T09:18:08;4.30;;;2.22;;
9801;SDS011;4940;50.900;4.672;2023-08-01T09:20:46;6.20;;;2.20;;
9801;SDS011;4940;50.900;4.672;2023-08-01T09:23:15;3.40;;;1.80;;
9801;SDS011;4940;50.900;4.672;2023-08-01T09:25:43;3.30;;;1.88;;
9801;SDS011;4940;50.900;4.672;2023-08-01T09:28:18;6.45;;;2.38;;
9801;SDS011;4940;50.900;4.672;2023-08-01T09:30:46;7.10;;;1.80;;
9801;SDS011;4940;50.900;4.672;2023-08-01T09:33:14;4.57;;;2.10;;
9801;SDS011;4940;50.900;4.672;2023-08-01T09:35:42;2.95;;;1.95;;
9801;SDS011;4940;50.900;4.672;2023-08-01T09:38:13;8.20;;;1.90;;
9801;SDS011;4940;50.900;4.672;2023-08-01T09:40:41;3.53;;;2.05;;
9801;SDS011;4940;50.900;4.672;2023-08-01T09:43:09;2.88;;;1.67;;
9801;SDS011;4940;50.900;4.672;2023-08-01T09:45:37;4.03;;;2.13;;
9801;SDS011;4940;50.900;4.672;2023-08-01T09:48:20;3.10;;;1.95;;
9801;SDS011;4940;50.900;4.672;2023-08-01T09:50:52;2.65;;;2.00;;
9801;SDS011;4940;50.900;4.672;2023-08-01T09:53:30;1.92;;;1.70;;
9801;SDS011;4940;50.900;4.672;2023-08-01T09:55:58;3.33;;;1.75;;
9801;SDS011;4940;50.900;4.672;2023-08-01T09:58:27;3.33;;;1.80;;
9801;SDS011;4940;50.900;4.672;2023-08-01T10:00:59;4.65;;;2.00;;
9801;SDS011;4940;50.900;4.672;2023-08-01T10:03:27;6.03;;;2.10;;
9801;SDS011;4940;50.900;4.672;2023-08-01T10:05:55;5.63;;;1.75;;
9801;SDS011;4940;50.900;4.672;2023-08-01T10:08:22;4.80;;;1.98;;
9801;SDS011;4940;50.900;4.672;2023-08-01T10:10:52;3.17;;;2.03;;
9801;SDS011;4940;50.900;4.672;2023-08-01T10:13:22;3.45;;;1.98;;
9801;SDS011;4940;50.900;4.672;2023-08-01T10:15:50;3.80;;;2.08;;
9801;SDS011;4940;50.900;4.672;2023-08-01T10:18:18;2.55;;;2.17;;
9801;SDS011;4940;50.900;4.672;2023-08-01T10:20:46;2.28;;;2.08;;
9801;SDS011;4940;50.900;4.672;2023-08-01T10:23:14;3.20;;;2.60;;
9801;SDS011;4940;50.900;4.672;2023-08-01T10:25:42;2.72;;;2.13;;
9801;SDS011;4940;50.900;4.672;2023-08-01T10:28:11;4.00;;;2.60;;
9801;SDS011;4940;50.900;4.672;2023-08-01T10:30:38;5.22;;;2.45;;
9801;SDS011;4940;50.900;4.672;2023-08-01T10:33:06;4.20;;;2.20;;
9801;SDS011;4940;50.900;4.672;2023-08-01T10:35:38;2.20;;;2.00;;
9801;SDS011;4940;50.900;4.672;2023-08-01T10:38:07;2.78;;;2.13;;
9801;SDS011;4940;50.900;4.672;2023-08-01T10:40:36;3.42;;;2.40;;
9801;SDS011;4940;50.900;4.672;2023-08-01T10:43:03;5.18;;;3.40;;
9801;SDS011;4940;50.900;4.672;2023-08-01T10:45:32;6.40;;;4.22;;
9801;SDS011;4940;50.900;4.672;2023-08-01T10:48:08;3.47;;;2.40;;
9801;SDS011;4940;50.900;4.672;2023-08-01T10:50:37;4.00;;;2.50;;
9801;SDS011;4940;50.900;4.672;2023-08-01T10:53:05;4.95;;;3.67;;
9801;SDS011;4940;50.900;4.672;2023-08-01T10:55:43;2.72;;;2.28;;
9801;SDS011;4940;50.900;4.672;2023-08-01T10:58:12;3.05;;;2.17;;
9801;SDS011;4940;50.900;4.672;2023-08-01T11:00:41;7.40;;;2.13;;
9801;SDS011;4940;50.900;4.672;2023-08-01T11:03:08;5.30;;;1.98;;
9801;SDS011;4940;50.900;4.672;2023-08-01T11:05:36;4.35;;;2.00;;
9801;SDS011;4940;50.900;4.672;2023-08-01T11:08:03;4.35;;;1.90;;
9801;SDS011;4940;50.900;4.672;2023-08-01T11:10:31;4.32;;;2.03;;
9801;SDS011;4940;50.900;4.672;2023-08-01T11:12:59;4.32;;;2.00;;
9801;SDS011;4940;50.900;4.672;2023-08-01T11:15:27;4.35;;;1.92;;
9801;SDS011;4940;50.900;4.672;2023-08-01T11:17:55;5.28;;;1.88;;
9801;SDS011;4940;50.900;4.672;2023-08-01T11:20:23;2.75;;;1.70;;
9801;SDS011;4940;50.900;4.672;2023-08-01T11:22:52;6.00;;;1.65;;
9801;SDS011;4940;50.900;4.672;2023-08-01T11:25:30;2.83;;;1.95;;
9801;SDS011;4940;50.900;4.672;2023-08-01T11:28:01;3.63;;;1.70;;
9801;SDS011;4940;50.900;4.672;2023-08-01T11:30:32;3.85;;;2.00;;
9801;SDS011;4940;50.900;4.672;2023-08-01T11:33:01;2.50;;;1.52;;
9801;SDS011;4940;50.900;4.672;2023-08-01T11:35:30;2.13;;;1.38;;
9801;SDS011;4940;50.900;4.672;2023-08-01T11:37:57;2.60;;;1.73;;
9801;SDS011;4940;50.900;4.672;2023-08-01T11:40:25;2.33;;;1.67;;
9801;SDS011;4940;50.900;4.672;2023-08-01T11:42:56;6.72;;;2.28;;
9801;SDS011;4940;50.900;4.672;2023-08-01T11:45:24;4.60;;;1.80;;
9801;SDS011;4940;50.900;4.672;2023-08-01T11:47:51;3.78;;;1.70;;
9801;SDS011;4940;50.900;4.672;2023-08-01T11:50:23;2.33;;;1.90;;
9801;SDS011;4940;50.900;4.672;2023-08-01T11:52:51;5.82;;;2.88;;
9801;SDS011;4940;50.900;4.672;2023-08-01T11:55:19;2.83;;;2.00;;
9801;SDS011;4940;50.900;4.672;2023-08-01T11:57:51;4.10;;;2.00;;
9801;SDS011;4940;50.900;4.672;2023-08-01T12:00:23;2.25;;;2.00;;
9801;SDS011;4940;50.900;4.672;2023-08-01T12:02:50;2.78;;;1.80;;
9801;SDS011;4940;50.900;4.672;2023-08-01T12:05:23;5.70;;;1.52;;
9801;SDS011;4940;50.900;4.672;2023-08-01T12:07:50;2.47;;;1.90;;
9801;SDS011;4940;50.900;4.672;2023-08-01T12:10:18;4.47;;;1.80;;
9801;SDS011;4940;50.900;4.672;2023-08-01T12:12:45;6.53;;;2.35;;
9801;SDS011;4940;50.900;4.672;2023-08-01T12:15:13;2.35;;;1.90;;
9801;SDS011;4940;50.900;4.672;2023-08-01T12:17:41;8.68;;;1.90;;
9801;SDS011;4940;50.900;4.672;2023-08-01T12:20:08;4.70;;;1.90;;
9801;SDS011;4940;50.900;4.672;2023-08-01T12:22:37;5.10;;;1.58;;
9801;SDS011;4940;50.900;4.672;2023-08-01T12:25:05;2.42;;;1.67;;
9801;SDS011;4940;50.900;4.672;2023-08-01T12:27:33;2.45;;;1.55;;
9801;SDS011;4940;50.900;4.672;2023-08-01T12:30:00;3.60;;;1.58;;
9801;SDS011;4940;50.900;4.672;2023-08-01T12:32:28;2.40;;;1.50;;
9801;SDS011;4940;50.900;4.672;2023-08-01T12:34:55;1.88;;;1.40;;
9801;SDS011;4940;50.900;4.672;2023-08-01T12:37:22;3.30;;;1.50;;
9801;SDS011;4940;50.900;4.672;2023-08-01T12:39:51;1.73;;;1.45;;
9801;SDS011;4940;50.900;4.672;2023-08-01T12:42:19;4.10;;;1.30;;
9801;SDS011;4940;50.900;4.672;2023-08-01T12:44:46;2.55;;;1.40;;
9801;SDS011;4940;50.900;4.672;2023-08-01T12:47:14;2.50;;;1.45;;
9801;SDS011;4940;50.900;4.672;2023-08-01T12:49:41;3.17;;;1.45;;
9801;SDS011;4940;50.900;4.672;2023-08-01T12:52:08;2.75;;;1.40;;
9801;SDS011;4940;50.900;4.672;2023-08-01T12:54:36;2.60;;;1.42;;
9801;SDS011;4940;50.900;4.672;2023-08-01T12:57:05;3.38;;;1.45;;
9801;SDS011;4940;50.900;4.672;2023-08-01T12:59:32;3.60;;;1.38;;
9801;SDS011;4940;50.900;4.672;2023-08-01T13:02:00;1.77;;;1.25;;
9801;SDS011;4940;50.900;4.672;2023-08-01T13:04:33;2.05;;;1.20;;
9801;SDS011;4940;50.900;4.672;2023-08-01T13:07:01;2.22;;;1.25;;
9801;SDS011;4940;50.900;4.672;2023-08-01T13:09:28;1.63;;;1.40;;
9801;SDS011;4940;50.900;4.672;2023-08-01T13:11:56;2.13;;;1.08;;
9801;SDS011;4940;50.900;4.672;2023-08-01T13:14:26;5.28;;;1.40;;
9801;SDS011;4940;50.900;4.672;2023-08-01T13:16:53;2.53;;;1.30;;
9801;SDS011;4940;50.900;4.672;2023-08-01T13:19:24;3.03;;;1.23;;
9801;SDS011;4940;50.900;4.672;2023-08-01T13:21:52;1.65;;;1.10;;
9801;SDS011;4940;50.900;4.672;2023-08-01T13:24:19;3.13;;;1.30;;
9801;SDS011;4940;50.900;4.672;2023-08-01T13:26:46;1.73;;;1.08;;
9801;SDS011;4940;50.900;4.672;2023-08-01T13:29:14;2.20;;;1.08;;
9801;SDS011;4940;50.900;4.672;2023-08-01T13:31:42;2.20;;;1.20;;
9801;SDS011;4940;50.900;4.672;2023-08-01T13:34:10;1.15;;;1.05;;
9801;SDS011;4940;50.900;4.672;2023-08-01T13:36:37;2.00;;;1.40;;
9801;SDS011;4940;50.900;4.672;2023-08-01T13:39:05;1.73;;;1.20;;
9801;SDS011;4940;50.900;4.672;2023-08-01T13:41:32;3.17;;;1.35;;
9801;SDS011;4940;50.900;4.672;2023-08-01T13:44:00;2.70;;;1.20;;
9801;SDS011;4940;50.900;4.672;2023-08-01T13:46:27;2.25;;;1.40;;
9801;SDS011;4940;50.900;4.672;2023-08-01T13:48:56;3.80;;;1.38;;
9801;SDS011;4940;50.900;4.672;2023-08-01T13:51:23;3.47;;;1.30;;
9801;SDS011;4940;50.900;4.672;2023-08-01T13:53:51;3.03;;;1.20;;
9801;SDS011;4940;50.900;4.672;2023-08-01T13:56:20;1.63;;;1.10;;
9801;SDS011;4940;50.900;4.672;2023-08-01T13:58:48;2.25;;;1.27;;
9801;SDS011;4940;50.900;4.672;2023-08-01T14:01:15;3.63;;;1.30;;
9801;SDS011;4940;50.900;4.672;2023-08-01T14:03:44;2.83;;;1.27;;
9801;SDS011;4940;50.900;4.672;2023-08-01T14:06:12;4.10;;;1.38;;
9801;SDS011;4940;50.900;4.672;2023-08-01T14:08:41;1.83;;;1.17;;
9801;SDS011;4940;50.900;4.672;2023-08-01T14:11:08;5.93;;;1.80;;
9801;SDS011;4940;50.900;4.672;2023-08-01T14:13:37;3.45;;;1.50;;
9801;SDS011;4940;50.900;4.672;2023-08-01T14:16:04;2.67;;;1.20;;
9801;SDS011;4940;50.900;4.672;2023-08-01T14:18:31;4.35;;;1.45;;
9801;SDS011;4940;50.900;4.672;2023-08-01T14:20:59;2.08;;;1.20;;
9801;SDS011;4940;50.900;4.672;2023-08-01T14:23:29;3.45;;;1.35;;
9801;SDS011;4940;50.900;4.672;2023-08-01T14:25:57;3.40;;;1.52;;
9801;SDS011;4940;50.900;4.672;2023-08-01T14:28:28;5.18;;;1.20;;
9801;SDS011;4940;50.900;4.672;2023-08-01T14:30:55;4.75;;;1.50;;
9801;SDS011;4940;50.900;4.672;2023-08-01T14:33:23;3.08;;;1.63;;
9801;SDS011;4940;50.900;4.672;2023-08-01T14:35:53;2.92;;;1.73;;
9801;SDS011;4940;50.900;4.672;2023-08-01T14:38:32;3.25;;;1.38;;
9801;SDS011;4940;50.900;4.672;2023-08-01T14:41:01;2.53;;;1.40;;
9801;SDS011;4940;50.900;4.672;2023-08-01T14:43:29;2.85;;;1.23;;
9801;SDS011;4940;50.900;4.672;2023-08-01T14:45:56;5.10;;;1.40;;
9801;SDS011;4940;50.900;4.672;2023-08-01T14:48:23;3.33;;;1.13;;
9801;SDS011;4940;50.900;4.672;2023-08-01T14:50:52;6.05;;;1.60;;
9801;SDS011;4940;50.900;4.672;2023-08-01T14:53:19;3.35;;;1.60;;
9801;SDS011;4940;50.900;4.672;2023-08-01T14:55:56;3.65;;;1.58;;
9801;SDS011;4940;50.900;4.672;2023-08-01T14:58:25;4.55;;;1.40;;
9801;SDS011;4940;50.900;4.672;2023-08-01T15:00:52;4.82;;;1.50;;
9801;SDS011;4940;50.900;4.672;2023-08-01T15:03:21;5.20;;;1.67;;
9801;SDS011;4940;50.900;4.672;2023-08-01T15:05:52;4.32;;;1.45;;